Tropical Cyclones
[Index]
Main Index Home Page Stock Weather Photos Extreme Storms Discussion Storm News and Storm Chasing Reports Tropical Cyclones / Hurricanes / Typhoons Weather Data and Links Wild Fires / Bushfires Weather Observation Techniques Weather Picture Catalogue Tornado Pictures and Reports Stock Video Footage and DVDs for sale
Season 2009-2010 Tropical Cyclone SARAH Track Map
Season 2009-2010 Summaries (Operational Data): [AU] [SIO] [SPAC] [SH]
<<- Previous TC | 2009-2010 Season | Next TC ->>

click for intensity scale information  Lat/long Grid: Show Hide

 Date Labels: Show Hide

Operational Tropical Cyclone Data : JTWC Advisories

Name: SARAH
Number: 1017

20 Feb 2010 12:00 UTC to 04 Mar 2010 06:00 UTC

    date/time    lat    long     hPa   cat  kts
2010-02-20 12    6.2   164.0W   1005         25          
2010-02-20 18    6.0   162.5W   1005         30          
2010-02-21 00    7.2   160.7W   1000         30          
2010-02-21 06    8.3   159.4W   1000         30          
2010-02-21 12    8.9   158.4W   1000         30          
2010-02-21 18    9.7   158.2W    998         30          
2010-02-22 00    9.2   159.0W    997         30          
2010-02-22 06    9.9   159.7W    997         30          
2010-02-22 12   11.8   160.1W   1000         30          
2010-02-22 18   11.7   160.5W   1000                     
2010-02-23 00   12.6   161.1W                            
2010-02-23 06   13.5   161.5W   1002         25          
2010-02-23 12   13.9   162.0W                20          
2010-02-23 21   15.0   161.4W   1006         20          
2010-02-24 06   15.5   161.2W   1004         20          
2010-02-24 18   15.4   164.0W   1004         20          
2010-02-25 21   15.3   164.1W   1004         20          
2010-02-25 06   16.0   164.5W   1003         20          
2010-02-25 18   16.4   164.2W   1000         30          
2010-02-26 00   16.6   163.6W   1000         30          
2010-02-26 06   16.8   163.3W   1000         30          
2010-02-26 12   16.6   163.2W    995    1    35          
2010-02-26 18   16.9   163.8W    995    1    35          
2010-02-27 00   17.0   163.2W    995    1    35          
2010-02-27 06   17.1   162.9W    995    1    35          
2010-02-27 12   17.3   162.6W    995    1    35          
2010-02-27 18   17.8   162.2W    995    1    35          
2010-02-28 00   17.2   162.9W    995    1    35          
2010-02-28 06   17.0   163.1W   1000         30          
2010-02-28 18   16.3   161.6W   1003         25          
2010-02-28 21   16.4   161.3W   1003         25          
2010-03-01 06   16.3   161.2W   1003         25          
2010-03-01 18   17.0   162.0W   1003         25          
2010-03-01 21   17.2   161.3W   1003         25          
2010-03-02 06   17.3   161.8W   1003         25          
2010-03-02 18   17.3   162.7W   1004         25          
2010-03-02 21   17.0   163.2W   1004         25          
2010-03-03 06   17.3   163.0W   1004         25          
2010-03-03 18   17.6   164.8W   1004         20          
2010-03-04 06   17.0   166.0W   1003         20          
Winds are 10-min average.

Tropical cyclone tracks developed by Michael Bath using operational warnings and advisories and Google Maps.


[Australian Severe Weather index] [Copyright Notice] [Email Contacts] [Search This Site] [Privacy Policy]
Document: tropical_cyclone_sarah.htm Updated: 28 May 2013